createdAt,value
2024-02-02T00:06:36.392Z,99.90
2024-02-02T00:12:07.753Z,95.90
2024-02-02T00:28:33.577Z,99.90
2024-02-02T01:12:22.893Z,99.90
2024-02-02T01:45:14.079Z,99.90
2024-02-02T01:56:10.388Z,96.60
2024-02-02T02:23:37.836Z,94.30
2024-02-02T03:12:57.983Z,95.30
2024-02-02T05:13:23.624Z,99.90
2024-02-02T05:18:52.427Z,99.90
2024-02-02T05:46:37.983Z,99.90
2024-02-02T06:03:03.989Z,95.20
2024-02-02T07:14:45.417Z,94.90
2024-02-02T07:43:17.470Z,99.90
2024-02-02T07:48:48.943Z,94.00
2024-02-02T07:59:47.169Z,94.00
2024-02-02T08:38:09.420Z,93.40
2024-02-02T08:50:00.781Z,93.40
2024-02-02T08:55:48.383Z,93.10
2024-02-02T09:01:44.096Z,93.10
2024-02-02T09:07:17.793Z,92.90
2024-02-02T09:12:51.659Z,92.80
2024-02-02T09:18:33.586Z,92.50
2024-02-02T09:29:31.131Z,92.20
2024-02-02T09:35:04.849Z,92.10
2024-02-02T09:46:44.643Z,91.70
2024-02-02T09:52:19.705Z,97.90
2024-02-02T09:58:12.117Z,91.50
2024-02-02T10:04:09.710Z,91.50
2024-02-02T10:16:06.433Z,91.10
2024-02-02T10:22:01.594Z,90.80
2024-02-02T10:28:19.712Z,90.80
2024-02-02T10:34:12.400Z,91.00
2024-02-02T10:40:03.367Z,90.90
2024-02-02T10:45:50.938Z,91.00
2024-02-02T10:51:50.553Z,91.00
2024-02-02T11:03:52.465Z,91.00
2024-02-02T11:09:49.428Z,91.00
2024-02-02T11:21:25.718Z,91.00
2024-02-02T11:32:48.396Z,91.00
2024-02-02T11:55:17.502Z,91.10
2024-02-02T12:07:12.607Z,91.20
2024-02-02T12:12:45.056Z,91.00
2024-02-02T12:29:17.076Z,91.30
2024-02-02T12:45:44.554Z,91.00
2024-02-02T13:29:57.978Z,90.10
2024-02-02T13:52:08.230Z,87.70
2024-02-02T14:30:43.149Z,91.90
2024-02-02T15:20:11.853Z,83.90
2024-02-02T17:26:19.143Z,83.80
2024-02-02T18:54:12.810Z,69.40
2024-02-02T18:59:41.003Z,69.90
2024-02-02T19:05:09.914Z,69.50
2024-02-02T19:10:38.060Z,69.10
2024-02-02T19:16:06.248Z,67.90
2024-02-02T19:21:36.369Z,66.80
2024-02-02T19:27:05.194Z,66.60
2024-02-02T19:32:33.371Z,65.00
2024-02-02T19:38:01.412Z,64.50
2024-02-02T19:43:30.809Z,63.00
2024-02-02T19:49:01.587Z,62.60
2024-02-02T19:54:32.558Z,61.50
2024-02-02T20:00:02.684Z,60.90
2024-02-02T20:05:35.563Z,59.70
2024-02-02T20:11:04.484Z,59.50
2024-02-02T20:16:32.736Z,59.30
2024-02-02T20:22:01.186Z,58.80
2024-02-02T20:27:30.609Z,58.40
2024-02-02T20:33:00.338Z,58.30
2024-02-02T20:38:32.680Z,58.10
2024-02-02T20:44:01.479Z,58.00
2024-02-02T20:49:30.708Z,57.50
2024-02-02T20:55:00.977Z,57.20
2024-02-02T21:00:31.016Z,57.30
2024-02-02T21:06:00.568Z,57.10
2024-02-02T21:11:29.330Z,57.20
2024-02-02T21:16:57.483Z,56.90
2024-02-02T21:22:25.899Z,56.80
2024-02-02T21:27:53.946Z,56.70
2024-02-02T21:33:22.137Z,56.30
2024-02-02T21:38:50.298Z,56.40
2024-02-02T21:44:18.272Z,56.40
2024-02-02T21:49:46.753Z,56.60
2024-02-02T21:55:15.448Z,56.50
2024-02-02T22:00:47.361Z,56.20
2024-02-02T22:06:15.997Z,56.20
2024-02-02T22:11:44.865Z,56.10
2024-02-02T22:17:13.550Z,55.80
2024-02-02T22:22:41.676Z,55.80
2024-02-02T22:28:09.822Z,55.30
2024-02-02T22:33:38.130Z,54.70
2024-02-02T22:39:06.842Z,54.10
2024-02-02T22:44:35.183Z,54.40
2024-02-02T22:50:03.742Z,54.40
2024-02-02T22:55:31.812Z,54.40
2024-02-02T23:01:00.203Z,53.80
2024-02-02T23:06:28.538Z,53.70
2024-02-02T23:11:56.910Z,53.30
2024-02-02T23:17:25.017Z,52.60
2024-02-02T23:22:53.264Z,52.50
2024-02-02T23:28:21.585Z,52.00
2024-02-02T23:33:49.877Z,51.50
2024-02-02T23:39:19.206Z,51.50
2024-02-02T23:44:47.215Z,50.90
2024-02-02T23:50:15.483Z,50.70
2024-02-02T23:55:43.448Z,50.40
